Time;durP1;ratioP1;P1;durP2;ratioP2;P2;SDS_P1;SDS_P2;PMS_P1;PMS_P2;Temp;Humidity;BMP_temperature;BMP_pressure;BME280_temperature;BME280_humidity;BME280_pressure;Samples;Min_cycle;Max_cycle;Signal;HPM_P1;HPM_P2
2021/04/28 00:01:50;;;;;;;58.20;34.50;;;0.20;97.00;;;;;;5037436;28;20226;-79
2021/04/28 00:04:18;;;;;;;59.67;35.13;;;0.20;97.30;;;;;;5047751;28;20424;-81
2021/04/28 00:06:46;;;;;;;62.60;35.27;;;0.10;97.30;;;;;;5054283;28;20202;-80
2021/04/28 00:09:14;;;;;;;56.67;32.87;;;0.10;97.10;;;;;;5043768;28;20208;-82
2021/04/28 00:11:41;;;;;;;59.03;34.67;;;0.00;97.50;;;;;;5050779;28;20451;-81
2021/04/28 00:14:11;;;;;;;56.93;34.03;;;0.00;97.90;;;;;;5049088;28;20434;-81
2021/04/28 00:16:38;;;;;;;58.90;34.00;;;0.00;98.30;;;;;;5034167;28;20194;-82
2021/04/28 00:19:06;;;;;;;58.80;34.80;;;0.00;98.90;;;;;;5030214;28;20288;-82
2021/04/28 00:21:34;;;;;;;67.70;37.47;;;0.00;98.70;;;;;;5034342;28;20269;-81
2021/04/28 00:24:03;;;;;;;63.10;35.97;;;0.00;98.70;;;;;;5033071;28;20210;-81
2021/04/28 00:26:31;;;;;;;66.27;38.97;;;-0.10;98.40;;;;;;5034872;28;20202;-80
2021/04/28 00:28:58;;;;;;;74.37;42.93;;;-0.20;98.00;;;;;;5050009;28;20269;-81
2021/04/28 00:31:26;;;;;;;58.00;37.27;;;-0.20;99.10;;;;;;5040712;28;20210;-82
2021/04/28 00:33:53;;;;;;;69.40;41.17;;;-0.10;99.80;;;;;;5038982;28;20288;-80
2021/04/28 00:36:21;;;;;;;65.40;39.53;;;-0.10;99.50;;;;;;5038239;28;20961;-81
2021/04/28 00:38:49;;;;;;;60.33;39.07;;;0.00;99.50;;;;;;5035026;28;20272;-82
2021/04/28 00:41:18;;;;;;;63.20;38.63;;;-0.10;98.90;;;;;;5033710;28;20211;-81
2021/04/28 00:43:46;;;;;;;68.63;41.53;;;-0.10;99.10;;;;;;5031915;28;20443;-82
2021/04/28 00:46:14;;;;;;;63.03;40.13;;;-0.10;99.20;;;;;;5032903;28;20198;-81
2021/04/28 00:48:42;;;;;;;68.40;38.67;;;-0.20;99.70;;;;;;5029390;28;20300;-82
2021/04/28 00:51:10;;;;;;;65.37;38.97;;;-0.20;99.60;;;;;;5026652;28;20323;-80
2021/04/28 00:53:37;;;;;;;64.27;40.07;;;-0.20;99.80;;;;;;5031896;28;20540;-81
2021/04/28 00:56:05;;;;;;;73.83;42.80;;;-0.20;99.90;;;;;;5031533;28;20320;-81
2021/04/28 00:58:33;;;;;;;67.07;40.57;;;-0.10;99.90;;;;;;5034959;28;20493;-81
2021/04/28 01:01:01;;;;;;;67.80;39.23;;;-0.20;99.30;;;;;;5041577;28;20282;-81
2021/04/28 01:03:29;;;;;;;59.63;36.70;;;-0.30;99.50;;;;;;5033190;28;20234;-80
2021/04/28 01:05:59;;;;;;;60.50;37.43;;;-0.30;99.90;;;;;;5031968;28;20217;-81
2021/04/28 01:08:27;;;;;;;61.73;37.17;;;-0.40;99.90;;;;;;5023358;28;20232;-81
2021/04/28 01:10:55;;;;;;;58.80;35.73;;;-0.40;99.80;;;;;;5029944;28;20202;-80
2021/04/28 01:13:24;;;;;;;57.03;36.27;;;-0.40;99.90;;;;;;5027033;28;20236;-81
2021/04/28 01:15:53;;;;;;;55.73;35.37;;;-0.40;99.90;;;;;;5029622;28;20956;-80
2021/04/28 01:18:22;;;;;;;55.87;33.47;;;-0.40;99.90;;;;;;5026363;28;20267;-81
2021/04/28 01:20:50;;;;;;;59.43;35.50;;;-0.40;99.90;;;;;;5032678;28;20206;-81
2021/04/28 01:23:20;;;;;;;61.27;36.43;;;-0.40;99.90;;;;;;5032133;28;20232;-81
2021/04/28 01:25:50;;;;;;;60.93;36.13;;;-0.40;99.90;;;;;;5033685;28;20455;-81
2021/04/28 01:28:21;;;;;;;62.03;35.67;;;-0.40;99.90;;;;;;5029465;28;20202;-81
2021/04/28 01:30:52;;;;;;;54.50;35.60;;;-0.40;99.90;;;;;;5025632;28;20213;-81
2021/04/28 01:33:25;;;;;;;57.30;35.70;;;-0.50;99.90;;;;;;5027621;28;20198;-82
2021/04/28 01:35:55;;;;;;;62.40;36.93;;;-0.50;99.90;;;;;;5032008;28;20664;-81
2021/04/28 01:38:28;;;;;;;63.80;39.30;;;-0.70;99.90;;;;;;5028977;28;21037;-81
2021/04/28 01:40:56;;;;;;;66.90;40.37;;;-0.60;99.90;;;;;;5033996;28;20545;-81
2021/04/28 01:43:25;;;;;;;61.97;38.37;;;-0.60;99.90;;;;;;5026989;28;20248;-80
2021/04/28 01:45:55;;;;;;;63.17;38.57;;;-0.60;99.90;;;;;;5031389;28;20302;-81
2021/04/28 01:48:26;;;;;;;66.60;43.57;;;-0.60;99.90;;;;;;5026541;28;20707;-83
2021/04/28 01:50:55;;;;;;;77.33;44.77;;;-0.70;99.90;;;;;;5025446;28;20198;-81
2021/04/28 01:53:25;;;;;;;71.27;42.67;;;-0.70;99.90;;;;;;5026838;28;20203;-80
2021/04/28 01:55:54;;;;;;;69.50;42.00;;;-0.70;99.90;;;;;;5028881;28;20242;-82
2021/04/28 01:58:24;;;;;;;67.13;42.30;;;-0.80;99.90;;;;;;5026917;28;20541;-81
2021/04/28 02:00:53;;;;;;;66.07;41.90;;;-0.80;99.90;;;;;;5031205;28;20566;-79
2021/04/28 02:03:22;;;;;;;69.30;43.57;;;-0.80;99.90;;;;;;5028959;28;20229;-81
2021/04/28 02:05:51;;;;;;;67.33;42.67;;;-0.80;99.90;;;;;;5027882;28;20202;-81
2021/04/28 02:08:18;;;;;;;72.40;41.43;;;-0.80;99.90;;;;;;5026453;28;20519;-81
2021/04/28 02:10:48;;;;;;;69.60;41.40;;;-0.80;99.90;;;;;;5031337;28;20213;-80
2021/04/28 02:13:16;;;;;;;70.00;43.50;;;-0.80;99.90;;;;;;5027850;28;20377;-81
2021/04/28 02:15:45;;;;;;;69.87;42.70;;;-0.70;99.90;;;;;;5025687;28;20564;-81
2021/04/28 02:18:14;;;;;;;72.10;44.07;;;-0.70;99.90;;;;;;5027222;28;20198;-80
2021/04/28 02:20:44;;;;;;;71.17;44.23;;;-0.60;99.90;;;;;;5028454;28;20323;-82
2021/04/28 02:23:13;;;;;;;65.93;41.30;;;-0.60;99.90;;;;;;5028193;28;20711;-81
2021/04/28 02:25:41;;;;;;;79.03;43.73;;;-0.60;99.90;;;;;;5026359;28;20202;-82
2021/04/28 02:28:09;;;;;;;72.17;43.90;;;-0.60;99.90;;;;;;5026306;28;20202;-82
2021/04/28 02:30:39;;;;;;;67.27;41.73;;;-0.70;99.90;;;;;;5029272;28;20257;-80
2021/04/28 02:33:07;;;;;;;68.97;40.83;;;-0.70;99.90;;;;;;5028519;28;20199;-80
2021/04/28 02:35:35;;;;;;;68.23;41.13;;;-0.60;99.90;;;;;;5029906;28;20252;-82
2021/04/28 02:38:06;;;;;;;66.20;42.00;;;-0.60;99.90;;;;;;5026816;28;20747;-80
2021/04/28 02:40:37;;;;;;;70.03;42.40;;;-0.60;99.90;;;;;;5030054;28;20217;-81
2021/04/28 02:43:05;;;;;;;67.47;41.27;;;-0.50;99.90;;;;;;5030174;28;20456;-81
2021/04/28 02:45:35;;;;;;;61.47;37.13;;;-0.50;99.90;;;;;;5024576;28;20229;-81
2021/04/28 02:48:03;;;;;;;57.60;36.07;;;-0.60;99.90;;;;;;5025285;28;20687;-81
2021/04/28 02:50:31;;;;;;;60.30;35.73;;;-0.60;99.90;;;;;;5023156;28;20221;-81
2021/04/28 02:52:59;;;;;;;59.80;34.43;;;-0.60;99.90;;;;;;5028720;28;20226;-82
2021/04/28 02:55:28;;;;;;;65.17;39.10;;;-0.60;99.90;;;;;;5024131;28;20198;-80
2021/04/28 02:57:57;;;;;;;54.73;35.43;;;-0.50;99.90;;;;;;5028278;28;20782;-81
2021/04/28 03:00:26;;;;;;;55.27;32.93;;;-0.50;99.60;;;;;;5038712;28;20190;-81
2021/04/28 03:02:57;;;;;;;58.97;37.67;;;-0.60;99.00;;;;;;5058150;28;20395;-81
2021/04/28 03:05:26;;;;;;;63.40;36.50;;;-0.60;98.80;;;;;;5049354;28;20214;-82
2021/04/28 03:07:54;;;;;;;57.80;34.27;;;-0.70;98.70;;;;;;5044313;28;20495;-81
2021/04/28 03:10:22;;;;;;;58.80;36.63;;;-0.80;99.00;;;;;;5057539;28;20197;-83
2021/04/28 03:12:50;;;;;;;58.80;36.83;;;-0.80;99.70;;;;;;5045329;28;20193;-81
2021/04/28 03:15:19;;;;;;;57.33;35.93;;;-0.80;99.90;;;;;;5030125;28;20256;-81
2021/04/28 03:17:51;;;;;;;54.23;34.40;;;-0.90;99.90;;;;;;5029021;28;20207;-79
2021/04/28 03:20:23;;;;;;;64.97;36.03;;;-0.90;99.90;;;;;;5033731;28;20287;-81
2021/04/28 03:22:51;;;;;;;54.77;35.57;;;-0.80;99.90;;;;;;5041203;28;20416;-81
2021/04/28 03:25:20;;;;;;;56.63;36.23;;;-0.80;99.90;;;;;;5057655;28;20195;-80
2021/04/28 03:27:49;;;;;;;46.37;28.37;;;-0.80;99.90;;;;;;5037140;28;20210;-80
2021/04/28 03:30:17;;;;;;;60.30;34.00;;;-0.80;99.90;;;;;;5036477;28;20296;-82
2021/04/28 03:32:44;;;;;;;49.30;30.53;;;-0.70;99.10;;;;;;5045361;28;20492;-83
2021/04/28 03:35:13;;;;;;;51.23;31.30;;;-0.60;98.10;;;;;;5045814;28;20199;-80
2021/04/28 03:37:43;;;;;;;46.70;27.93;;;-0.80;97.70;;;;;;5031131;28;20205;-82
2021/04/28 03:40:11;;;;;;;42.93;25.40;;;-0.50;95.40;;;;;;5035132;28;20198;-81
2021/04/28 03:42:39;;;;;;;47.87;28.13;;;-0.40;93.10;;;;;;5039367;28;20230;-81
2021/04/28 03:45:08;;;;;;;43.47;28.97;;;-0.40;93.20;;;;;;5038382;28;20782;-80
2021/04/28 03:47:35;;;;;;;44.33;26.90;;;-0.30;93.30;;;;;;5032258;28;20225;-81
2021/04/28 03:50:03;;;;;;;44.50;27.07;;;-0.30;92.50;;;;;;5033139;28;20562;-81
2021/04/28 03:52:31;;;;;;;42.93;25.60;;;-0.30;92.70;;;;;;5034105;28;20206;-82
2021/04/28 03:55:00;;;;;;;45.37;27.43;;;-0.20;91.90;;;;;;5037728;28;20908;-81
2021/04/28 03:57:27;;;;;;;43.07;27.20;;;-0.20;91.30;;;;;;5037060;28;20193;-81
2021/04/28 03:59:59;;;;;;;39.87;27.00;;;0.00;91.60;;;;;;5041497;28;20211;-82
2021/04/28 04:02:29;;;;;;;46.57;27.40;;;0.00;92.00;;;;;;5034435;28;20254;-82
2021/04/28 04:04:57;;;;;;;39.73;25.47;;;0.00;92.50;;;;;;5033120;28;21018;-81
2021/04/28 04:07:25;;;;;;;41.83;26.70;;;0.10;91.00;;;;;;5028421;28;20360;-79
2021/04/28 04:09:52;;;;;;;41.13;24.87;;;0.20;90.60;;;;;;5030469;28;20807;-82
2021/04/28 04:12:21;;;;;;;37.10;24.13;;;0.20;90.10;;;;;;5047076;28;20215;-81
2021/04/28 04:14:49;;;;;;;43.37;27.77;;;0.30;90.20;;;;;;5053027;28;20244;-82
2021/04/28 04:17:16;;;;;;;43.90;25.10;;;0.40;89.60;;;;;;5049734;28;20221;-82
2021/04/28 04:19:44;;;;;;;40.37;24.40;;;0.40;88.80;;;;;;5046356;28;20482;-81
2021/04/28 04:22:13;;;;;;;39.73;24.00;;;0.40;88.20;;;;;;5038705;28;20268;-81
2021/04/28 04:24:40;;;;;;;38.37;24.00;;;0.50;87.90;;;;;;5031355;28;20196;-82
2021/04/28 04:27:08;;;;;;;38.77;23.97;;;0.70;88.10;;;;;;5032783;28;20220;-81
2021/04/28 04:29:36;;;;;;;40.37;23.73;;;0.70;88.00;;;;;;5026852;28;20525;-81
2021/04/28 04:32:05;;;;;;;39.57;23.97;;;0.80;87.80;;;;;;5032324;28;20217;-81
2021/04/28 04:34:33;;;;;;;48.43;25.13;;;0.90;87.40;;;;;;5033942;28;20211;-82
2021/04/28 04:37:01;;;;;;;39.70;24.07;;;1.00;87.10;;;;;;5037585;28;20280;-81
2021/04/28 04:39:28;;;;;;;35.27;24.07;;;1.20;87.00;;;;;;5034641;28;20231;-81
2021/04/28 04:41:56;;;;;;;36.90;24.33;;;1.20;86.80;;;;;;5036475;28;20205;-80
2021/04/28 04:44:24;;;;;;;35.97;23.90;;;1.40;87.30;;;;;;5037414;28;20197;-80
2021/04/28 04:46:52;;;;;;;41.80;24.07;;;1.50;86.90;;;;;;5029421;28;20221;-82
2021/04/28 04:49:20;;;;;;;38.27;23.93;;;1.60;86.70;;;;;;5029551;28;20889;-82
2021/04/28 04:51:48;;;;;;;36.10;23.90;;;1.70;86.60;;;;;;5027432;28;20722;-82
2021/04/28 04:54:15;;;;;;;37.47;23.10;;;1.90;86.40;;;;;;5028405;28;20206;-81
2021/04/28 04:56:43;;;;;;;41.30;23.17;;;1.90;85.80;;;;;;5027423;28;20225;-82
2021/04/28 04:59:11;;;;;;;39.67;21.67;;;2.20;85.50;;;;;;5022296;28;20202;-81
2021/04/28 05:01:38;;;;;;;28.83;21.27;;;2.40;85.00;;;;;;5031482;28;20255;-81
2021/04/28 05:04:07;;;;;;;31.33;20.93;;;2.60;84.60;;;;;;5026532;28;20694;-81
2021/04/28 05:06:34;;;;;;;34.10;20.40;;;2.80;83.90;;;;;;5026682;28;20603;-80
2021/04/28 05:09:03;;;;;;;29.97;19.43;;;3.00;83.60;;;;;;5022907;28;20519;-80
2021/04/28 05:11:30;;;;;;;31.13;19.00;;;3.20;83.30;;;;;;5025665;28;20267;-80
2021/04/28 05:13:58;;;;;;;31.03;19.27;;;3.40;83.10;;;;;;5025353;28;20812;-82
2021/04/28 05:16:26;;;;;;;33.17;18.27;;;3.60;81.80;;;;;;5023795;28;20880;-81
2021/04/28 05:18:53;;;;;;;29.73;18.23;;;3.70;81.30;;;;;;5019175;28;20206;-82
2021/04/28 05:21:22;;;;;;;35.63;17.80;;;4.00;81.10;;;;;;5024615;28;20603;-82
2021/04/28 05:23:49;;;;;;;26.93;18.40;;;4.10;80.70;;;;;;5019706;28;20276;-82
2021/04/28 05:26:17;;;;;;;32.17;21.00;;;4.30;80.50;;;;;;5030337;28;20666;-82
2021/04/28 05:28:44;;;;;;;28.90;17.77;;;4.50;79.90;;;;;;5023336;28;20199;-82
2021/04/28 05:31:12;;;;;;;22.97;15.70;;;4.70;79.30;;;;;;5036476;28;20260;-82
2021/04/28 05:33:41;;;;;;;22.23;15.37;;;4.80;79.00;;;;;;5038368;28;20217;-80
2021/04/28 05:36:09;;;;;;;23.80;16.10;;;5.00;78.80;;;;;;5033558;28;20473;-81
2021/04/28 05:38:38;;;;;;;24.30;14.93;;;5.20;78.60;;;;;;5037075;28;20205;-82
2021/04/28 05:41:05;;;;;;;21.87;14.10;;;5.30;78.10;;;;;;5035350;28;21025;-81
2021/04/28 05:43:34;;;;;;;23.73;14.97;;;5.50;77.30;;;;;;5040679;28;20511;-81
2021/04/28 05:46:02;;;;;;;19.90;15.10;;;5.60;77.90;;;;;;5038225;28;20259;-83
2021/04/28 05:48:29;;;;;;;23.33;14.67;;;5.80;77.10;;;;;;5047840;28;20209;-82
2021/04/28 05:50:57;;;;;;;20.93;14.30;;;5.90;76.30;;;;;;5027905;28;20210;-81
2021/04/28 05:53:24;;;;;;;18.53;15.07;;;6.20;76.40;;;;;;5039266;28;20194;-82
2021/04/28 05:55:53;;;;;;;20.73;14.43;;;6.20;76.10;;;;;;5036097;28;20217;-84
2021/04/28 05:58:21;;;;;;;20.27;14.60;;;6.30;75.70;;;;;;5031206;28;20208;-82
2021/04/28 06:00:49;;;;;;;21.90;14.53;;;6.40;75.10;;;;;;5028419;28;20206;-83
2021/04/28 06:03:16;;;;;;;21.17;14.13;;;6.50;75.00;;;;;;5037089;28;20221;-82
2021/04/28 06:05:44;;;;;;;23.23;13.57;;;6.70;74.80;;;;;;5020588;28;20264;-84
2021/04/28 06:08:13;;;;;;;18.27;12.90;;;6.80;74.80;;;;;;5012735;28;20214;-80
2021/04/28 06:10:41;;;;;;;18.83;13.50;;;7.00;74.20;;;;;;5032452;28;20264;-80
2021/04/28 06:13:10;;;;;;;15.73;12.77;;;7.20;74.40;;;;;;5023349;28;20663;-82
2021/04/28 06:15:38;;;;;;;16.63;12.63;;;7.30;73.30;;;;;;5042046;28;20413;-82
2021/04/28 06:18:06;;;;;;;17.07;12.67;;;7.30;72.80;;;;;;5031964;28;20206;-82
2021/04/28 06:20:35;;;;;;;17.23;12.67;;;7.40;72.40;;;;;;5025952;28;20207;-84
2021/04/28 06:23:04;;;;;;;17.13;12.47;;;7.50;72.40;;;;;;5021690;28;20726;-82
2021/04/28 06:25:32;;;;;;;20.10;12.83;;;7.70;72.20;;;;;;5047209;28;20225;-83
2021/04/28 06:28:00;;;;;;;17.67;12.47;;;7.80;71.80;;;;;;5045684;28;20211;-81
2021/04/28 06:30:28;;;;;;;17.57;11.20;;;8.00;71.00;;;;;;5041281;28;20219;-83
2021/04/28 06:32:56;;;;;;;15.57;11.37;;;8.00;71.00;;;;;;5046929;28;20695;-82
2021/04/28 06:35:23;;;;;;;15.97;11.53;;;8.10;70.30;;;;;;5023053;28;20536;-83
2021/04/28 06:37:51;;;;;;;14.03;11.77;;;8.30;70.30;;;;;;5029332;28;20204;-83
2021/04/28 06:40:20;;;;;;;18.33;12.30;;;8.50;69.20;;;;;;5025855;28;20275;-83
2021/04/28 06:42:48;;;;;;;14.63;11.50;;;8.50;69.80;;;;;;5021740;28;20292;-82
2021/04/28 06:45:16;;;;;;;16.90;11.60;;;8.70;69.60;;;;;;5025729;28;20339;-81
2021/04/28 06:47:53;;;;;;;15.83;11.63;;;8.80;69.10;;;;;;5032412;28;20213;-83
2021/04/28 06:50:21;;;;;;;16.53;12.03;;;9.00;68.60;;;;;;5030371;28;20209;-82
2021/04/28 06:52:50;;;;;;;15.10;11.50;;;9.00;68.00;;;;;;5039138;28;20200;-81
2021/04/28 06:55:18;;;;;;;17.23;11.73;;;9.10;67.60;;;;;;5028407;28;20374;-83
2021/04/28 06:57:55;;;;;;;14.30;10.67;;;9.20;67.30;;;;;;5030600;28;20217;-81
2021/04/28 07:00:24;;;;;;;16.33;11.07;;;9.30;67.20;;;;;;5043564;28;20413;-82
2021/04/28 07:02:53;;;;;;;14.97;10.93;;;9.50;66.30;;;;;;5044331;28;20237;-82
2021/04/28 07:05:23;;;;;;;14.77;10.80;;;9.50;66.00;;;;;;5044357;28;20202;-83
2021/04/28 07:07:52;;;;;;;14.13;11.17;;;9.60;65.70;;;;;;5041181;28;20213;-82
2021/04/28 07:10:21;;;;;;;15.83;10.40;;;9.60;65.00;;;;;;5049371;28;20198;-83
2021/04/28 07:12:49;;;;;;;16.83;10.97;;;9.80;65.20;;;;;;5046449;28;20295;-83
2021/04/28 07:15:17;;;;;;;14.23;10.40;;;9.80;64.80;;;;;;5053093;28;20203;-82
2021/04/28 07:17:45;;;;;;;13.40;9.97;;;9.90;64.10;;;;;;5049502;28;20281;-83
2021/04/28 07:20:15;;;;;;;12.57;9.60;;;10.00;63.80;;;;;;5049230;28;20217;-83
2021/04/28 07:22:43;;;;;;;13.63;9.57;;;10.00;62.60;;;;;;5049251;28;20293;-82
2021/04/28 07:25:12;;;;;;;13.13;8.93;;;10.20;62.30;;;;;;5045894;28;20200;-83
2021/04/28 07:27:41;;;;;;;13.47;8.43;;;10.40;61.30;;;;;;5041325;28;20414;-82
2021/04/28 07:30:10;;;;;;;11.53;8.27;;;10.40;60.60;;;;;;5038395;28;20202;-82
2021/04/28 07:32:38;;;;;;;10.70;8.57;;;10.50;60.20;;;;;;5038850;28;20194;-81
2021/04/28 07:35:07;;;;;;;11.17;8.83;;;10.60;59.50;;;;;;5043597;28;20263;-80
2021/04/28 07:37:35;;;;;;;13.93;8.13;;;10.60;59.30;;;;;;5037273;28;20508;-82
2021/04/28 07:40:05;;;;;;;10.87;8.50;;;10.80;57.60;;;;;;5039092;28;20206;-83
2021/04/28 07:42:33;;;;;;;10.63;7.30;;;10.90;57.60;;;;;;5035002;28;20202;-82
2021/04/28 07:45:00;;;;;;;9.83;7.43;;;11.00;55.10;;;;;;5037869;28;20292;-80
2021/04/28 07:47:28;;;;;;;8.87;7.13;;;11.20;54.90;;;;;;5051279;28;20206;-83
2021/04/28 07:50:15;;;;;;;12.57;7.23;;;11.20;52.50;;;;;;5042279;28;20218;-82
2021/04/28 07:52:44;;;;;;;12.87;8.10;;;11.30;52.40;;;;;;5050019;28;20201;-82
2021/04/28 07:55:12;;;;;;;10.93;7.97;;;11.40;50.90;;;;;;5047974;28;20496;-82
2021/04/28 07:57:41;;;;;;;10.87;7.13;;;11.50;51.20;;;;;;5047663;28;20368;-82
2021/04/28 08:00:10;;;;;;;8.53;7.20;;;11.60;50.10;;;;;;5038528;28;20202;-83
2021/04/28 08:02:38;;;;;;;15.63;7.40;;;11.70;48.80;;;;;;5028690;28;20206;-83
2021/04/28 08:05:07;;;;;;;8.17;7.37;;;11.60;47.90;;;;;;5030573;28;20489;-83
2021/04/28 08:07:35;;;;;;;8.33;7.23;;;11.60;49.10;;;;;;5041260;28;20205;-82
2021/04/28 08:10:06;;;;;;;8.33;6.97;;;11.60;46.00;;;;;;5047605;28;20209;-80
2021/04/28 08:12:33;;;;;;;8.53;7.00;;;11.60;47.00;;;;;;5036677;28;20225;-81
2021/04/28 08:15:03;;;;;;;9.90;7.33;;;11.80;46.80;;;;;;5034818;28;20214;-83
2021/04/28 08:17:31;;;;;;;8.23;6.90;;;11.80;46.90;;;;;;5031363;28;20760;-80
2021/04/28 08:19:59;;;;;;;8.10;6.80;;;11.90;45.50;;;;;;5027562;28;20208;-83
2021/04/28 08:22:28;;;;;;;5.67;4.80;;;11.80;45.80;;;;;;5031428;28;20202;-82
2021/04/28 08:24:56;;;;;;;9.97;7.47;;;11.60;45.00;;;;;;5032267;28;20230;-80
2021/04/28 08:27:24;;;;;;;11.07;7.03;;;11.40;44.90;;;;;;5023168;28;20455;-82
2021/04/28 08:29:53;;;;;;;9.50;7.10;;;11.50;46.00;;;;;;5040725;28;20206;-81
2021/04/28 08:32:20;;;;;;;8.70;6.83;;;11.60;45.00;;;;;;5027731;28;20925;-80
2021/04/28 08:34:49;;;;;;;9.57;7.50;;;11.80;46.00;;;;;;5019941;28;20455;-81
2021/04/28 08:37:16;;;;;;;8.83;6.67;;;12.10;44.90;;;;;;5012521;28;20207;-80
2021/04/28 08:39:44;;;;;;;8.33;7.10;;;12.10;45.20;;;;;;5012338;28;20480;-83
2021/04/28 08:42:12;;;;;;;8.13;7.00;;;12.20;44.60;;;;;;5020163;28;20511;-82
2021/04/28 08:44:40;;;;;;;8.43;7.13;;;12.40;43.90;;;;;;5014850;28;20234;-82
2021/04/28 08:47:08;;;;;;;8.07;6.47;;;12.40;43.30;;;;;;5006060;28;20213;-82
2021/04/28 08:49:36;;;;;;;8.87;6.73;;;12.40;43.50;;;;;;5008918;28;20457;-83
2021/04/28 08:52:05;;;;;;;8.63;6.97;;;12.50;42.80;;;;;;5007561;28;20198;-80
2021/04/28 08:54:47;;;;;;;10.43;7.37;;;12.50;42.10;;;;;;4984845;28;20217;-82
2021/04/28 08:57:15;;;;;;;7.90;7.10;;;12.40;42.60;;;;;;5007444;28;20231;-84
2021/04/28 08:59:45;;;;;;;8.80;7.67;;;12.40;42.00;;;;;;5032665;28;20530;-82
2021/04/28 09:02:21;;;;;;;8.57;7.63;;;12.30;42.90;;;;;;5019302;28;20543;-81
2021/04/28 09:05:07;;;;;;;8.87;7.60;;;12.40;43.20;;;;;;5001831;28;20257;-82
2021/04/28 09:07:34;;;;;;;8.80;7.70;;;12.40;43.00;;;;;;5033346;28;20210;-82
2021/04/28 09:10:07;;;;;;;11.13;8.17;;;12.40;42.90;;;;;;5032310;28;20206;-81
2021/04/28 09:12:36;;;;;;;8.47;7.50;;;12.40;43.50;;;;;;5038298;28;20335;-83
2021/04/28 09:15:10;;;;;;;9.27;7.37;;;12.50;42.20;;;;;;5035697;28;20266;-83
2021/04/28 09:17:50;;;;;;;10.10;8.13;;;12.40;42.90;;;;;;5034746;28;20531;-81
2021/04/28 09:20:25;;;;;;;11.13;8.07;;;12.60;42.60;;;;;;5030704;28;20327;-81
2021/04/28 09:23:03;;;;;;;9.90;8.13;;;12.50;42.60;;;;;;5029100;28;20220;-80
2021/04/28 09:25:39;;;;;;;11.00;8.13;;;12.50;43.30;;;;;;5028457;28;20213;-82
2021/04/28 09:28:26;;;;;;;10.73;8.30;;;12.50;43.30;;;;;;5031035;28;20584;-80
2021/04/28 09:31:19;;;;;;;9.33;7.97;;;12.40;43.80;;;;;;5037813;28;20825;-80
2021/04/28 09:34:09;;;;;;;8.63;7.53;;;12.50;42.00;;;;;;5044976;27;20610;-83
2021/04/28 09:36:39;;;;;;;9.77;8.33;;;12.40;43.20;;;;;;5031753;28;20190;-83
2021/04/28 09:39:08;;;;;;;11.57;8.60;;;12.60;43.70;;;;;;5022978;28;20210;-81
2021/04/28 09:41:38;;;;;;;11.13;9.17;;;12.70;42.80;;;;;;5018208;28;20447;-80
2021/04/28 09:44:28;;;;;;;11.03;8.63;;;12.60;42.60;;;;;;5027394;28;20444;-82
2021/04/28 09:46:59;;;;;;;10.67;7.93;;;12.50;43.10;;;;;;5029579;28;20210;-82
2021/04/28 09:49:46;;;;;;;16.00;8.60;;;12.60;43.30;;;;;;5033638;28;20221;-83
2021/04/28 09:52:15;;;;;;;11.47;7.97;;;12.50;43.00;;;;;;5025533;28;20396;-85
2021/04/28 09:54:44;;;;;;;11.77;8.27;;;12.60;42.70;;;;;;5027417;28;20202;-83
2021/04/28 09:57:15;;;;;;;11.27;8.27;;;12.60;43.20;;;;;;5032576;28;20198;-84
2021/04/28 09:59:45;;;;;;;9.93;7.77;;;12.60;44.20;;;;;;5029542;28;20206;-85
2021/04/28 10:02:15;;;;;;;11.63;7.87;;;12.80;44.50;;;;;;5036350;28;20202;-86
2021/04/28 10:04:44;;;;;;;9.27;7.63;;;12.90;43.80;;;;;;5034580;28;20278;-83
2021/04/28 10:07:26;;;;;;;9.93;8.53;;;12.90;42.80;;;;;;5030322;28;20206;-85
2021/04/28 10:09:55;;;;;;;10.87;8.30;;;12.80;43.70;;;;;;5024704;28;20275;-86
2021/04/28 10:12:23;;;;;;;10.67;8.00;;;12.80;42.80;;;;;;5030951;28;20851;-82
2021/04/28 10:14:51;;;;;;;11.10;8.03;;;12.50;42.30;;;;;;5036412;28;20286;-85
2021/04/28 10:17:20;;;;;;;11.03;7.40;;;12.40;43.60;;;;;;5035830;28;21025;-83
2021/04/28 10:19:50;;;;;;;11.23;8.07;;;12.50;43.80;;;;;;5023472;28;20206;-85
2021/04/28 10:22:19;;;;;;;10.87;7.60;;;12.40;43.60;;;;;;5006860;28;20240;-84
2021/04/28 10:24:50;;;;;;;8.80;7.97;;;12.50;43.50;;;;;;5015539;28;20195;-82
2021/04/28 10:27:18;;;;;;;9.20;8.23;;;12.60;43.00;;;;;;5018594;28;20468;-83
2021/04/28 10:29:48;;;;;;;10.27;9.17;;;12.50;42.70;;;;;;5030906;28;20597;-83
2021/04/28 10:32:18;;;;;;;9.17;8.23;;;12.60;44.50;;;;;;5019574;28;20228;-84
2021/04/28 10:34:51;;;;;;;12.33;8.03;;;12.70;43.80;;;;;;5020277;28;20737;-85
2021/04/28 10:37:21;;;;;;;9.30;8.10;;;12.70;41.80;;;;;;5011293;28;21083;-83
2021/04/28 10:39:50;;;;;;;9.73;7.73;;;12.70;41.70;;;;;;5015186;28;20271;-82
2021/04/28 10:42:31;;;;;;;8.77;7.87;;;12.70;41.80;;;;;;5013191;28;20560;-84
2021/04/28 10:44:59;;;;;;;9.60;7.13;;;12.70;41.50;;;;;;4999123;28;20218;-83
2021/04/28 10:47:34;;;;;;;9.13;7.50;;;12.70;41.10;;;;;;4992164;28;22114;-83
2021/04/28 10:50:08;;;;;;;8.87;7.77;;;12.70;40.90;;;;;;5013748;28;20198;-84
2021/04/28 10:52:40;;;;;;;9.63;7.43;;;12.80;41.50;;;;;;5004885;28;20478;-84
2021/04/28 10:55:54;;;;;;;9.37;8.43;;;12.80;41.80;;;;;;5000838;28;20496;-81
2021/04/28 10:58:48;;;;;;;9.73;7.67;;;12.90;41.40;;;;;;4991803;28;20571;-85
2021/04/28 11:01:28;;;;;;;10.27;8.03;;;12.90;41.40;;;;;;4991652;28;20203;-85
2021/04/28 11:03:56;;;;;;;10.30;8.17;;;13.00;41.60;;;;;;4994220;28;21641;-81
2021/04/28 11:06:36;;;;;;;9.87;8.30;;;13.00;41.30;;;;;;4999181;28;20261;-82
2021/04/28 11:09:15;;;;;;;10.83;8.60;;;13.00;41.50;;;;;;4996272;28;20233;-82
2021/04/28 11:11:51;;;;;;;9.40;8.07;;;12.90;40.80;;;;;;4992373;28;20642;-82
2021/04/28 11:14:47;;;;;;;10.73;8.23;;;12.90;41.40;;;;;;4990011;28;20800;-81
2021/04/28 11:17:29;;;;;;;8.87;7.97;;;13.10;41.70;;;;;;4997678;28;20216;-86
2021/04/28 11:20:23;;;;;;;8.37;7.57;;;13.10;40.90;;;;;;4990052;28;21455;-85
2021/04/28 11:22:51;;;;;;;10.63;7.80;;;13.30;39.40;;;;;;4990060;28;20452;-84
2021/04/28 11:25:20;;;;;;;10.13;8.53;;;13.30;39.90;;;;;;5014716;28;20198;-83
2021/04/28 11:28:02;;;;;;;11.47;8.43;;;13.50;41.10;;;;;;4986839;28;20210;-84
2021/04/28 11:30:33;;;;;;;9.77;8.77;;;13.50;41.40;;;;;;4999999;28;20616;-82
2021/04/28 11:33:15;;;;;;;10.27;8.43;;;13.30;40.40;;;;;;4990709;28;20399;-83
2021/04/28 11:35:45;;;;;;;9.50;8.43;;;13.10;40.20;;;;;;4992831;28;20458;-83
2021/04/28 11:38:16;;;;;;;10.10;8.53;;;13.10;41.10;;;;;;4987634;28;20211;-83
2021/04/28 11:40:54;;;;;;;11.30;9.27;;;13.10;41.20;;;;;;4992901;28;20286;-82
2021/04/28 11:43:24;;;;;;;10.17;8.77;;;13.10;41.00;;;;;;4995771;28;21026;-85
2021/04/28 11:45:54;;;;;;;9.40;7.97;;;13.10;41.60;;;;;;4990451;28;20207;-84
2021/04/28 11:48:23;;;;;;;9.73;8.73;;;13.20;40.70;;;;;;4993059;28;20206;-85
2021/04/28 11:50:55;;;;;;;9.70;8.80;;;13.20;40.10;;;;;;4991785;28;20203;-84
2021/04/28 11:53:25;;;;;;;12.03;8.93;;;13.00;40.00;;;;;;5001200;28;20226;-83
2021/04/28 11:55:53;;;;;;;9.90;8.83;;;12.90;40.60;;;;;;5009540;28;20403;-83
2021/04/28 11:58:26;;;;;;;12.70;9.50;;;13.00;40.70;;;;;;4997644;28;20246;-82
2021/04/28 12:01:06;;;;;;;11.50;9.00;;;13.40;41.70;;;;;;5007038;28;20586;-83
2021/04/28 12:03:56;;;;;;;13.43;9.87;;;13.40;41.60;;;;;;4999354;28;20202;-83
2021/04/28 12:06:28;;;;;;;11.40;10.17;;;13.50;40.90;;;;;;4995252;28;20218;-83
2021/04/28 12:09:19;;;;;;;10.97;9.90;;;13.60;40.90;;;;;;4995110;28;20667;-83
2021/04/28 12:11:49;;;;;;;11.20;10.00;;;13.80;40.30;;;;;;4993050;28;20222;-84
2021/04/28 12:14:25;;;;;;;13.47;10.40;;;13.80;40.20;;;;;;5017077;28;20301;-84
2021/04/28 12:16:54;;;;;;;12.23;10.30;;;13.80;40.30;;;;;;5008690;28;20207;-83
2021/04/28 12:19:23;;;;;;;11.60;10.37;;;13.80;40.70;;;;;;5026498;28;20206;-84
2021/04/28 12:21:58;;;;;;;12.07;10.03;;;13.70;41.00;;;;;;5020288;28;20203;-83
2021/04/28 12:24:28;;;;;;;12.97;9.83;;;13.80;42.00;;;;;;5010238;28;21017;-82
2021/04/28 12:27:10;;;;;;;13.90;9.67;;;14.00;41.40;;;;;;5004550;28;20276;-83
2021/04/28 12:29:40;;;;;;;13.00;10.40;;;14.20;40.70;;;;;;5003695;28;20292;-84
2021/04/28 12:32:09;;;;;;;11.27;10.07;;;14.40;40.20;;;;;;5009654;28;20303;-85
2021/04/28 12:34:38;;;;;;;10.90;9.80;;;14.30;39.90;;;;;;5003762;28;21401;-81
2021/04/28 12:37:14;;;;;;;11.23;9.97;;;14.30;39.70;;;;;;5004459;28;20250;-83
2021/04/28 12:39:52;;;;;;;10.30;9.10;;;14.30;39.90;;;;;;5003256;28;20339;-85
2021/04/28 12:42:25;;;;;;;9.57;8.60;;;14.40;38.70;;;;;;5006934;28;20576;-85
2021/04/28 12:44:53;;;;;;;10.47;9.40;;;14.50;37.80;;;;;;5011324;28;20266;-84
2021/04/28 12:47:25;;;;;;;10.93;8.53;;;14.60;38.40;;;;;;5014304;28;20223;-84
2021/04/28 12:50:06;;;;;;;10.17;9.17;;;14.90;38.20;;;;;;5007205;28;20203;-84
2021/04/28 12:52:37;;;;;;;9.40;8.37;;;14.90;37.90;;;;;;5002670;28;20333;-82